Terminal Aerodrome Forecast
Issued by NWS

Home | Current Version | Previous Version | Text Only | Print | Product List | Glossary On
Versions: 1 2 3 4 5 6 7 8 9 10 11 12 13
507
FTUS43 KEAX 240520
TAFSTJ
TAF
KSTJ 240520Z 2406/2506 07005KT P6SM VCSH OVC019
     FM240800 08007KT 5SM -SHRA BR OVC012
      TEMPO 2410/2414 -FZRA OVC006
     FM241400 09009KT 4SM BR OVC003
     FM241800 12007KT 5SM -SHRA BR OVC012=

USA.gov is the U.S. government's official web portal to all federal, state and local government web resources and services.